createdAt,value
2017-07-16T03:00:35.098Z,8
2017-07-16T03:01:36.454Z,4
2017-07-16T03:02:57.989Z,8
2017-07-16T03:03:59.345Z,8
2017-07-16T03:05:20.859Z,12
2017-07-16T03:06:22.217Z,12
2017-07-16T03:07:43.748Z,12
2017-07-16T03:08:45.106Z,16
2017-07-16T03:10:06.620Z,16
2017-07-16T03:11:07.978Z,16
2017-07-16T03:12:29.511Z,16
2017-07-16T03:13:30.868Z,20
2017-07-16T03:14:52.379Z,24
2017-07-16T03:15:53.738Z,24
2017-07-16T03:17:15.269Z,28
2017-07-16T03:18:16.626Z,28
2017-07-16T03:19:38.137Z,32
2017-07-16T03:20:39.497Z,36
2017-07-16T03:22:01.027Z,44
2017-07-16T03:23:02.387Z,44
2017-07-16T03:24:23.899Z,48
2017-07-16T03:25:25.261Z,56
2017-07-16T03:26:46.775Z,60
2017-07-16T03:27:48.133Z,64
2017-07-16T03:29:09.664Z,76
2017-07-16T03:30:11.021Z,88
2017-07-16T03:31:32.535Z,96
2017-07-16T03:32:33.894Z,108
2017-07-16T03:33:55.425Z,120
2017-07-16T03:34:56.784Z,128
2017-07-16T03:36:18.300Z,144
2017-07-16T03:37:19.661Z,160
2017-07-16T03:38:41.193Z,184
2017-07-16T03:39:42.552Z,200
2017-07-16T03:41:04.067Z,220
2017-07-16T03:42:05.427Z,232
2017-07-16T03:43:26.961Z,260
2017-07-16T03:44:28.321Z,284
2017-07-16T03:45:49.840Z,316
2017-07-16T03:46:51.200Z,348
2017-07-16T03:48:12.733Z,388
2017-07-16T03:49:14.091Z,424
2017-07-16T03:50:35.607Z,484
2017-07-16T03:51:36.966Z,532
2017-07-16T03:52:58.503Z,588
2017-07-16T03:53:59.860Z,632
2017-07-16T03:55:21.373Z,704
2017-07-16T03:56:22.734Z,756
2017-07-16T03:57:44.267Z,824
2017-07-16T03:58:45.626Z,884
2017-07-16T04:00:07.144Z,968
2017-07-16T04:01:08.505Z,1004
2017-07-16T04:02:30.036Z,1012
2017-07-16T04:03:31.405Z,1000
2017-07-16T04:04:52.917Z,1008
2017-07-16T04:05:54.280Z,1020
2017-07-16T04:07:15.815Z,1012
2017-07-16T04:08:17.173Z,988
2017-07-16T04:09:38.710Z,936
2017-07-16T04:10:40.068Z,888
2017-07-16T04:12:01.584Z,864
2017-07-16T04:13:02.945Z,888
2017-07-16T04:14:24.477Z,956
2017-07-16T04:15:25.839Z,1028
2017-07-16T04:16:47.359Z,1120
2017-07-16T04:17:48.720Z,1172
2017-07-16T04:19:10.253Z,1180
2017-07-16T04:20:11.615Z,1164
2017-07-16T04:21:33.133Z,1168
2017-07-16T04:22:34.496Z,1212
2017-07-16T04:23:56.027Z,1304
2017-07-16T04:24:57.400Z,1392
2017-07-16T04:26:18.917Z,1504
2017-07-16T04:27:20.281Z,1576
2017-07-16T04:28:41.818Z,1656
2017-07-16T04:29:43.178Z,1692
2017-07-16T04:31:05.194Z,1744
2017-07-16T04:32:06.556Z,1792
2017-07-16T04:33:28.098Z,1864
2017-07-16T04:34:29.465Z,1908
2017-07-16T04:35:50.983Z,1984
2017-07-16T04:36:52.348Z,2040
2017-07-16T04:38:13.882Z,2088
2017-07-16T04:39:15.243Z,2100
2017-07-16T04:40:36.766Z,2068
2017-07-16T04:41:38.126Z,2012
2017-07-16T04:42:59.664Z,1964
2017-07-16T04:44:01.027Z,1976
2017-07-16T04:45:22.547Z,2008
2017-07-16T04:46:23.909Z,2008
2017-07-16T04:47:45.446Z,1956
2017-07-16T04:48:46.808Z,1908
2017-07-16T04:50:08.325Z,1868
2017-07-16T04:51:09.690Z,1856
2017-07-16T04:52:31.246Z,1828
2017-07-16T04:53:32.573Z,1780
2017-07-16T04:54:54.110Z,1708
2017-07-16T04:55:55.471Z,1712
2017-07-16T04:57:16.993Z,1796
2017-07-16T04:58:18.359Z,1880
2017-07-16T04:59:39.894Z,2004
2017-07-16T05:00:41.257Z,2040
2017-07-16T05:02:02.775Z,2024
2017-07-16T05:03:04.139Z,2000
2017-07-16T05:04:25.673Z,1936
2017-07-16T05:05:27.035Z,1868
2017-07-16T05:06:48.560Z,1812
2017-07-16T05:07:49.924Z,1796
2017-07-16T05:09:11.460Z,1744
2017-07-16T05:10:12.822Z,1700
2017-07-16T05:11:34.346Z,1644
2017-07-16T05:12:35.708Z,1620
2017-07-16T05:13:57.247Z,1628
2017-07-16T05:14:58.608Z,1652
2017-07-16T05:16:20.128Z,1732
2017-07-16T05:17:21.494Z,1816
2017-07-16T05:18:43.030Z,1912
2017-07-16T05:19:44.392Z,1956
2017-07-16T05:21:05.910Z,1972
2017-07-16T05:22:07.281Z,1952
2017-07-16T05:23:28.815Z,1880
2017-07-16T05:24:30.178Z,1804
2017-07-16T05:25:51.700Z,1716
2017-07-16T05:26:53.063Z,1688
2017-07-16T05:28:14.601Z,1704
2017-07-16T05:29:15.962Z,1704
2017-07-16T05:30:37.484Z,1684
2017-07-16T05:31:38.849Z,1652
2017-07-16T05:33:00.384Z,1636
2017-07-16T05:34:01.751Z,1696
2017-07-16T05:35:23.273Z,1796
2017-07-16T05:36:24.639Z,1876
2017-07-16T05:37:46.158Z,2028
2017-07-16T05:38:47.521Z,2160
2017-07-16T05:40:09.061Z,2304
2017-07-16T05:41:10.423Z,2456
2017-07-16T05:42:31.945Z,2652
2017-07-16T05:43:33.309Z,2720
2017-07-16T05:44:54.846Z,2796
2017-07-16T05:45:56.208Z,2644
2017-07-16T05:47:17.731Z,2580
2017-07-16T05:48:19.096Z,2576
2017-07-16T05:49:40.639Z,2564
2017-07-16T05:50:42.002Z,2632
2017-07-16T05:52:03.518Z,2700
2017-07-16T05:53:04.883Z,2788
2017-07-16T05:54:26.424Z,2908
2017-07-16T05:55:27.786Z,2900
2017-07-16T05:56:49.307Z,2900
2017-07-16T05:57:50.673Z,2968
2017-07-16T05:59:12.207Z,3068
2017-07-16T06:00:13.570Z,3124
2017-07-16T06:01:35.093Z,3188
2017-07-16T06:02:36.458Z,3272
2017-07-16T06:03:57.995Z,3404
2017-07-16T06:04:59.359Z,3552
2017-07-16T06:06:20.885Z,3808
2017-07-16T06:07:22.250Z,3960
2017-07-16T06:08:43.788Z,4036
2017-07-16T06:09:45.152Z,3988
2017-07-16T06:11:06.677Z,3952
2017-07-16T06:12:08.041Z,4008
2017-07-16T06:13:29.580Z,4060
2017-07-16T06:14:30.942Z,4144
2017-07-16T06:15:52.466Z,4236
2017-07-16T06:16:53.831Z,4328
2017-07-16T06:18:15.369Z,4500
2017-07-16T06:19:16.732Z,4500
2017-07-16T06:20:38.253Z,4260
2017-07-16T06:21:39.623Z,3988
2017-07-16T06:23:01.146Z,3604
2017-07-16T06:24:02.510Z,3400
2017-07-16T06:25:24.185Z,3236
2017-07-16T06:26:25.548Z,3032
2017-07-16T06:27:47.069Z,2808
2017-07-16T06:28:48.435Z,2960
2017-07-16T06:30:09.974Z,3168
2017-07-16T06:31:11.337Z,3340
2017-07-16T06:32:32.858Z,3876
2017-07-16T06:33:34.223Z,4180
2017-07-16T06:34:55.761Z,4152
2017-07-16T06:35:57.133Z,3948
2017-07-16T06:37:18.642Z,3788
2017-07-16T06:38:20.011Z,3656
2017-07-16T06:39:41.544Z,3704
2017-07-16T06:40:42.911Z,3560
2017-07-16T06:42:04.432Z,3508
2017-07-16T06:43:05.795Z,3588
2017-07-16T06:44:27.335Z,3460
2017-07-16T06:45:28.697Z,3336
2017-07-16T06:46:50.221Z,3444
2017-07-16T06:47:51.587Z,3744
2017-07-16T06:49:13.122Z,4108
2017-07-16T06:50:14.487Z,4296
2017-07-16T06:51:36.006Z,4380
2017-07-16T06:52:37.371Z,4440
2017-07-16T06:53:58.910Z,4692
2017-07-16T06:55:00.271Z,4976
2017-07-16T06:56:22.785Z,5168
2017-07-16T06:57:24.150Z,5148
2017-07-16T06:58:45.688Z,4876
2017-07-16T06:59:47.052Z,4600
2017-07-16T07:01:08.577Z,4636
2017-07-16T07:02:09.944Z,4804
2017-07-16T07:03:31.480Z,4636
2017-07-16T07:04:32.845Z,4352
2017-07-16T07:05:54.384Z,3984
2017-07-16T07:06:55.748Z,3824
2017-07-16T07:08:17.271Z,3932
2017-07-16T07:09:18.639Z,3936
2017-07-16T07:10:40.177Z,4100
2017-07-16T07:11:41.541Z,4164
2017-07-16T07:13:03.062Z,4356
2017-07-16T07:14:04.427Z,4508
2017-07-16T07:15:25.969Z,4424
2017-07-16T07:16:27.331Z,4712
2017-07-16T07:17:48.855Z,5020
2017-07-16T07:18:50.221Z,4988
2017-07-16T07:20:11.757Z,5016
2017-07-16T07:21:13.122Z,5236
2017-07-16T07:22:34.645Z,5436
2017-07-16T07:23:36.011Z,5348
2017-07-16T07:24:57.548Z,5208
2017-07-16T07:25:58.912Z,5060
2017-07-16T07:27:20.439Z,4984
2017-07-16T07:28:21.805Z,5348
2017-07-16T07:29:43.345Z,6432
2017-07-16T07:30:44.710Z,7448
2017-07-16T07:32:06.234Z,7884
2017-07-16T07:33:07.600Z,8168
2017-07-16T07:34:29.140Z,7956
2017-07-16T07:35:30.503Z,8804
2017-07-16T07:36:52.025Z,8612
2017-07-16T07:37:53.403Z,8272
2017-07-16T07:39:14.929Z,7252
2017-07-16T07:40:16.293Z,7184
2017-07-16T07:41:37.815Z,7832
2017-07-16T07:42:39.182Z,7756
2017-07-16T07:44:00.722Z,7120
2017-07-16T07:45:02.086Z,7272
2017-07-16T07:46:23.611Z,7216
2017-07-16T07:47:24.978Z,6928
2017-07-16T07:48:46.515Z,6868
2017-07-16T07:49:47.882Z,7020
2017-07-16T07:51:09.407Z,7420
2017-07-16T07:52:10.776Z,7372
2017-07-16T07:53:32.294Z,6456
2017-07-16T07:54:33.661Z,6064
2017-07-16T07:55:55.205Z,5792
2017-07-16T07:56:56.571Z,5752
2017-07-16T07:58:18.117Z,5632
2017-07-16T07:59:19.482Z,4556
2017-07-16T08:00:41.023Z,4184
2017-07-16T08:01:42.387Z,4384
2017-07-16T08:03:03.910Z,4304
2017-07-16T08:04:05.280Z,3988
2017-07-16T08:05:26.815Z,4040
2017-07-16T08:06:28.180Z,4240
2017-07-16T08:07:49.704Z,3968
2017-07-16T08:08:51.073Z,4220
2017-07-16T08:10:12.610Z,4832
2017-07-16T08:11:13.972Z,5328
2017-07-16T08:12:35.494Z,6108
2017-07-16T08:13:36.862Z,7412
2017-07-16T08:14:58.400Z,7844
2017-07-16T08:15:59.764Z,7784
2017-07-16T08:17:21.285Z,7704
2017-07-16T08:18:22.652Z,7592
2017-07-16T08:19:44.189Z,7232
2017-07-16T08:20:45.553Z,6808
2017-07-16T08:22:07.075Z,6352
2017-07-16T08:23:08.442Z,5964
2017-07-16T08:24:29.979Z,5348
2017-07-16T08:25:31.343Z,5564
2017-07-16T08:26:52.868Z,5136
2017-07-16T08:27:54.236Z,5116
2017-07-16T08:29:15.774Z,4932
2017-07-16T08:30:17.138Z,4928
2017-07-16T08:31:38.657Z,4940
2017-07-16T08:32:40.024Z,5316
2017-07-16T08:34:01.563Z,5588
2017-07-16T08:35:02.926Z,5872
2017-07-16T08:36:24.641Z,6520
2017-07-16T08:37:26.231Z,6976
2017-07-16T08:38:47.756Z,8084
2017-07-16T08:39:49.123Z,9100
2017-07-16T08:41:10.662Z,9552
2017-07-16T08:42:12.192Z,10196
2017-07-16T08:43:33.713Z,11248
2017-07-16T08:44:35.083Z,10724
2017-07-16T08:45:56.851Z,9096
2017-07-16T08:46:58.217Z,8928
2017-07-16T08:48:19.739Z,8512
2017-07-16T08:49:21.108Z,10540
2017-07-16T08:50:43.511Z,11328
2017-07-16T08:51:45.035Z,11824
2017-07-16T08:53:06.556Z,12992
2017-07-16T08:54:07.947Z,12992
2017-07-16T08:55:29.489Z,13048
2017-07-16T08:56:30.855Z,14268
2017-07-16T08:57:52.407Z,15680
2017-07-16T08:58:53.774Z,14496
2017-07-16T09:00:15.533Z,12664
2017-07-16T09:01:16.899Z,11100
2017-07-16T09:02:38.423Z,9580
2017-07-16T09:03:39.795Z,8376
2017-07-16T09:05:01.480Z,8224
2017-07-16T09:06:02.848Z,8816
2017-07-16T09:07:24.367Z,9016
2017-07-16T09:08:25.735Z,8076
2017-07-16T09:09:47.288Z,8612
2017-07-16T09:10:48.647Z,8128
2017-07-16T09:12:10.621Z,8576
2017-07-16T09:13:11.994Z,8496
2017-07-16T09:14:33.538Z,8252
2017-07-16T09:15:34.904Z,9312
2017-07-16T09:16:56.432Z,10660
2017-07-16T09:17:57.797Z,9960
2017-07-16T09:19:19.339Z,11028
2017-07-16T09:20:20.706Z,10764
2017-07-16T09:21:42.232Z,10116
2017-07-16T09:22:43.603Z,9896
2017-07-16T09:24:05.122Z,9192
2017-07-16T09:25:06.490Z,8936
2017-07-16T09:26:28.034Z,8552
2017-07-16T09:27:29.398Z,7124
2017-07-16T09:28:50.925Z,5576
2017-07-16T09:29:52.293Z,5340
2017-07-16T09:31:13.835Z,6096
2017-07-16T09:32:15.201Z,6632
2017-07-16T09:33:36.722Z,6872
2017-07-16T09:34:38.089Z,6136
2017-07-16T09:35:59.632Z,7016
2017-07-16T09:37:00.999Z,7104
2017-07-16T09:38:22.520Z,7584
2017-07-16T09:39:23.887Z,8344
2017-07-16T09:40:45.432Z,9972
2017-07-16T09:41:46.798Z,11048
2017-07-16T09:43:08.321Z,10688
2017-07-16T09:44:09.843Z,11320
2017-07-16T09:45:31.386Z,11100
2017-07-16T09:46:32.753Z,10348
2017-07-16T09:47:54.275Z,8616
2017-07-16T09:48:55.644Z,8084
2017-07-16T09:50:17.188Z,7076
2017-07-16T09:51:18.552Z,7572
2017-07-16T09:52:40.074Z,6396
2017-07-16T09:53:41.443Z,5700
2017-07-16T09:55:03.135Z,5932
2017-07-16T09:56:04.506Z,6484
2017-07-16T09:57:26.026Z,7004
2017-07-16T09:58:27.392Z,7184
2017-07-16T09:59:48.939Z,8136
2017-07-16T10:00:50.331Z,8848
2017-07-16T10:02:11.829Z,9800
2017-07-16T10:03:13.199Z,10432
2017-07-16T10:04:34.741Z,10296
2017-07-16T10:05:36.105Z,9432
2017-07-16T10:06:57.632Z,7928
2017-07-16T10:07:58.999Z,7916
2017-07-16T10:09:20.521Z,8180
2017-07-16T10:10:21.889Z,8244
2017-07-16T10:11:43.436Z,8032
2017-07-16T10:12:44.795Z,8132
2017-07-16T10:14:06.319Z,8392
2017-07-16T10:15:07.688Z,8612
2017-07-16T10:16:29.236Z,9088
2017-07-16T10:17:30.609Z,9172
2017-07-16T10:18:52.137Z,9320
2017-07-16T10:19:53.680Z,9236
2017-07-16T10:21:16.743Z,9032
2017-07-16T10:22:18.110Z,8972
2017-07-16T10:23:39.635Z,8908
2017-07-16T10:24:41.021Z,8764
2017-07-16T10:26:02.565Z,8968
2017-07-16T10:27:03.930Z,9080
2017-07-16T10:28:25.455Z,9308
2017-07-16T10:29:26.822Z,9200
2017-07-16T10:30:48.369Z,9492
2017-07-16T10:31:49.735Z,9924
2017-07-16T10:33:11.267Z,10912
2017-07-16T10:34:12.630Z,11632
2017-07-16T10:35:34.181Z,11528
2017-07-16T10:36:35.566Z,11824
2017-07-16T10:37:57.087Z,12084
2017-07-16T10:38:58.456Z,12136
2017-07-16T10:40:20.000Z,12744
2017-07-16T10:41:21.402Z,12872
2017-07-16T10:42:42.927Z,12028
2017-07-16T10:43:44.293Z,10996
2017-07-16T10:45:05.840Z,12160
2017-07-16T10:46:07.213Z,12912
2017-07-16T10:47:28.738Z,13820
2017-07-16T10:48:30.109Z,15316
2017-07-16T10:49:51.656Z,16224
2017-07-16T10:50:53.024Z,14524
2017-07-16T10:52:14.552Z,13168
2017-07-16T10:53:15.922Z,13380
2017-07-16T10:54:37.445Z,14476
2017-07-16T10:55:38.925Z,15312
2017-07-16T10:57:00.853Z,15524
2017-07-16T10:58:02.232Z,15436
2017-07-16T10:59:23.767Z,14720
2017-07-16T11:00:25.140Z,14292
2017-07-16T11:01:46.759Z,13604
2017-07-16T11:02:48.267Z,13212
2017-07-16T11:04:09.802Z,13100
2017-07-16T11:05:11.172Z,12748
2017-07-16T11:06:33.401Z,12256
2017-07-16T11:07:34.793Z,12816
2017-07-16T11:08:56.473Z,13364
2017-07-16T11:09:57.929Z,12920
2017-07-16T11:11:19.485Z,13640
2017-07-16T11:12:20.853Z,13812
2017-07-16T11:13:42.385Z,14112
2017-07-16T11:14:43.752Z,14764
2017-07-16T11:16:05.517Z,13892
2017-07-16T11:17:06.887Z,13712
2017-07-16T11:18:28.412Z,12644
2017-07-16T11:19:29.815Z,12300
2017-07-16T11:20:51.506Z,12748
2017-07-16T11:21:52.854Z,13112
2017-07-16T11:23:14.392Z,13756
2017-07-16T11:24:15.763Z,13992
2017-07-16T11:25:37.335Z,14484
2017-07-16T11:26:39.159Z,15408
2017-07-16T11:28:00.710Z,16108
2017-07-16T11:29:02.082Z,15424
2017-07-16T11:30:23.630Z,12172
2017-07-16T11:31:24.997Z,9724
2017-07-16T11:32:46.525Z,8832
2017-07-16T11:33:47.896Z,9292
2017-07-16T11:35:09.446Z,10796
2017-07-16T11:36:10.817Z,12020
2017-07-16T11:37:32.361Z,13496
2017-07-16T11:38:34.017Z,14616
2017-07-16T11:39:55.551Z,13816
2017-07-16T11:40:56.926Z,12900
2017-07-16T11:42:18.472Z,11056
2017-07-16T11:43:19.856Z,10332
2017-07-16T11:44:41.423Z,10040
2017-07-16T11:45:42.809Z,10700
2017-07-16T11:47:04.363Z,9668
2017-07-16T11:48:05.733Z,9660
2017-07-16T11:49:27.265Z,9520
2017-07-16T11:50:28.639Z,9444
2017-07-16T11:51:50.185Z,9572
2017-07-16T11:52:51.556Z,9176
2017-07-16T11:54:13.103Z,9048
2017-07-16T11:55:14.461Z,7932
2017-07-16T11:56:36.009Z,6736
2017-07-16T11:57:37.378Z,6528
2017-07-16T11:58:58.906Z,6612
2017-07-16T12:00:00.281Z,6528
2017-07-16T12:01:21.828Z,5752
2017-07-16T12:02:23.199Z,5440
2017-07-16T12:03:45.973Z,5984
2017-07-16T12:04:47.341Z,6476
2017-07-16T12:06:08.892Z,6980
2017-07-16T12:07:10.470Z,7040
2017-07-16T12:08:31.993Z,7580
2017-07-16T12:09:33.364Z,7420
2017-07-16T12:10:54.918Z,7504
2017-07-16T12:11:56.286Z,7228
2017-07-16T12:13:17.812Z,7156
2017-07-16T13:09:38.399Z,13484
2017-07-16T13:10:39.767Z,14028
2017-07-16T13:12:01.308Z,12996
2017-07-16T13:13:02.679Z,12148
2017-07-16T13:14:24.498Z,10760
2017-07-16T13:15:25.871Z,10024
2017-07-16T13:16:47.416Z,9544
2017-07-16T13:17:48.785Z,9044
2017-07-16T13:19:10.314Z,8212
2017-07-16T13:20:11.682Z,8988
2017-07-16T13:21:33.233Z,10552
2017-07-16T13:22:35.185Z,10132
2017-07-16T13:23:56.720Z,9452
2017-07-16T13:24:58.088Z,8936
2017-07-16T13:26:20.910Z,8924
2017-07-16T13:27:22.278Z,8568
2017-07-16T13:28:43.806Z,7772
2017-07-16T13:29:45.180Z,7192
2017-07-16T13:31:06.721Z,7540
2017-07-16T13:32:08.092Z,7676
2017-07-16T13:33:29.843Z,8028
2017-07-16T13:34:31.209Z,8760
2017-07-16T13:35:52.786Z,8796
2017-07-16T13:36:54.263Z,7976
2017-07-16T13:38:15.807Z,6096
2017-07-16T13:39:17.241Z,5732
2017-07-16T13:40:38.772Z,5484
2017-07-16T13:41:40.139Z,4780
2017-07-16T13:43:01.680Z,4300
2017-07-16T13:44:03.049Z,4160
2017-07-16T13:45:24.574Z,4104
2017-07-16T13:46:25.943Z,4724
2017-07-16T13:47:47.489Z,5204
2017-07-16T13:48:48.856Z,5504
2017-07-16T13:50:10.384Z,6504
2017-07-16T13:51:11.754Z,7168
2017-07-16T13:52:33.296Z,5692
2017-07-16T13:53:34.658Z,5228
2017-07-16T13:54:56.194Z,4808
2017-07-16T13:55:57.558Z,4436
2017-07-16T13:57:19.106Z,4360
2017-07-16T13:58:20.473Z,4204
2017-07-16T13:59:42.995Z,4056
2017-07-16T14:00:44.362Z,4012
2017-07-16T14:02:05.903Z,4412
2017-07-16T14:03:07.270Z,4184
2017-07-16T14:04:29.020Z,3636
2017-07-16T14:05:30.388Z,3420
2017-07-16T14:06:51.929Z,3524
2017-07-16T14:07:53.340Z,3776
2017-07-16T14:09:14.865Z,3548
2017-07-16T14:10:16.233Z,3328
2017-07-16T14:11:37.776Z,3612
2017-07-16T14:12:39.142Z,3896
2017-07-16T14:14:00.666Z,3648
2017-07-16T14:15:02.032Z,4196
2017-07-16T14:16:23.585Z,5176
2017-07-16T14:17:24.946Z,4636
2017-07-16T14:18:46.472Z,4528
2017-07-16T14:19:47.838Z,4456
2017-07-16T14:21:10.793Z,4300
2017-07-16T14:22:11.903Z,4560
2017-07-16T14:23:33.466Z,4460
2017-07-16T14:24:34.849Z,4156
2017-07-16T14:25:56.376Z,3252
2017-07-16T14:26:57.858Z,2364
2017-07-16T14:28:19.402Z,2124
2017-07-16T14:29:21.314Z,2536
2017-07-16T14:30:42.835Z,3768
2017-07-16T14:31:44.205Z,4704
2017-07-16T14:33:05.750Z,4708
2017-07-16T14:34:07.119Z,5148
2017-07-16T14:35:28.644Z,3368
2017-07-16T14:36:30.403Z,2840
2017-07-16T14:37:51.945Z,2440
2017-07-16T14:38:53.311Z,2484
2017-07-16T14:40:14.836Z,3796
2017-07-16T14:41:16.648Z,5352
2017-07-16T14:42:38.200Z,4832
2017-07-16T14:43:39.680Z,4048
2017-07-16T14:45:02.360Z,5940
2017-07-16T14:46:03.733Z,7584
2017-07-16T14:47:25.437Z,10184
2017-07-16T14:48:26.811Z,11828
2017-07-16T14:49:48.488Z,11332
2017-07-16T14:50:49.852Z,10576
2017-07-16T14:52:11.416Z,10112
2017-07-16T14:53:12.777Z,9948
2017-07-16T14:54:34.809Z,8820
2017-07-16T14:55:36.179Z,7736
2017-07-16T14:56:57.746Z,6928
2017-07-16T14:57:59.115Z,6312
2017-07-16T14:59:20.668Z,7148
2017-07-16T15:00:22.012Z,7820
2017-07-16T15:01:44.550Z,5568
2017-07-16T15:02:45.918Z,4472
2017-07-16T15:04:07.446Z,5596
2017-07-16T15:05:09.505Z,7828
2017-07-16T15:06:31.052Z,8632
2017-07-16T15:07:32.453Z,8444
2017-07-16T15:08:53.983Z,8240
2017-07-16T15:09:56.027Z,8336
2017-07-16T15:11:18.210Z,9368
2017-07-16T15:12:19.582Z,9968
2017-07-16T15:13:41.131Z,10128
2017-07-16T15:14:42.495Z,9712
2017-07-16T15:16:04.533Z,8816
2017-07-16T15:17:05.904Z,8972
2017-07-16T15:18:27.488Z,8256
2017-07-16T15:19:28.815Z,8236
2017-07-16T15:20:50.340Z,7576
2017-07-16T15:21:51.709Z,7244
2017-07-16T15:23:14.809Z,7052
2017-07-16T15:24:16.439Z,5768
2017-07-16T15:25:38.212Z,4924
2017-07-16T15:26:39.627Z,5324
2017-07-16T15:28:01.174Z,6848
2017-07-16T15:29:02.538Z,9044
2017-07-16T15:30:24.078Z,10476
2017-07-16T15:31:25.448Z,10488
2017-07-16T15:32:46.997Z,10544
2017-07-16T15:33:48.759Z,10376
2017-07-16T15:35:10.290Z,9604
2017-07-16T15:36:11.684Z,10072
2017-07-16T15:37:33.237Z,11716
2017-07-16T15:38:34.608Z,10568
2017-07-16T15:39:56.134Z,7676
2017-07-16T15:40:57.506Z,7144
2017-07-16T15:42:19.046Z,7716
2017-07-16T15:43:20.415Z,7828
2017-07-16T15:44:41.948Z,7084
2017-07-16T15:45:43.314Z,6812
2017-07-16T15:47:04.856Z,6944
2017-07-16T15:48:06.226Z,6908
2017-07-16T15:49:27.753Z,5784
2017-07-16T15:50:29.124Z,4572
2017-07-16T15:51:50.669Z,4524
2017-07-16T15:52:52.039Z,5400
2017-07-16T15:54:13.565Z,5748
2017-07-16T15:55:14.937Z,6820
2017-07-16T15:56:36.462Z,6248
2017-07-16T15:57:37.830Z,5164
2017-07-16T15:58:59.377Z,5744
2017-07-16T16:00:00.746Z,8076
2017-07-16T16:01:22.276Z,6184
2017-07-16T16:02:23.647Z,5684
2017-07-16T16:03:45.193Z,6712
2017-07-16T16:04:46.560Z,6744
2017-07-16T16:06:08.091Z,6172
2017-07-16T16:07:09.459Z,6436
2017-07-16T16:08:31.012Z,7344
2017-07-16T16:09:32.383Z,7568
2017-07-16T16:10:53.912Z,6720
2017-07-16T16:11:55.281Z,5948
2017-07-16T16:13:16.831Z,6016
2017-07-16T16:14:18.199Z,6284
2017-07-16T16:15:40.724Z,6740
2017-07-16T16:16:42.096Z,6848
2017-07-16T16:18:04.637Z,6192
2017-07-16T16:19:06.009Z,5548
2017-07-16T16:20:27.547Z,4984
2017-07-16T16:21:28.914Z,4256
2017-07-16T16:22:50.469Z,3700
2017-07-16T16:23:51.835Z,4020
2017-07-16T16:25:13.365Z,3752
2017-07-16T16:26:14.734Z,3020
2017-07-16T16:27:36.289Z,2212
2017-07-16T16:28:37.656Z,2032
2017-07-16T16:29:59.182Z,1940
2017-07-16T16:31:00.549Z,2080
2017-07-16T16:32:22.119Z,2432
2017-07-16T17:41:27.898Z,884
2017-07-16T17:42:29.261Z,880
2017-07-16T17:43:50.832Z,892
2017-07-16T17:44:52.198Z,884
2017-07-16T17:46:13.750Z,828
2017-07-16T17:47:15.119Z,660
2017-07-16T17:48:36.660Z,444
2017-07-16T17:49:39.916Z,456
2017-07-16T17:51:01.438Z,536
2017-07-16T17:52:02.805Z,576
2017-07-16T17:53:24.345Z,648
2017-07-16T17:54:25.709Z,708
2017-07-16T17:55:47.230Z,652
2017-07-16T17:56:48.596Z,452
2017-07-16T17:58:10.160Z,296
2017-07-16T17:59:11.526Z,236
2017-07-16T18:00:33.044Z,248
2017-07-16T18:01:34.542Z,272
2017-07-16T18:02:56.419Z,240
2017-07-16T18:03:59.675Z,216
2017-07-16T18:05:21.809Z,224
2017-07-16T18:06:23.175Z,260
2017-07-16T18:07:44.715Z,280
2017-07-16T18:08:47.020Z,336
2017-07-16T18:10:08.771Z,388
2017-07-16T18:11:10.139Z,412
2017-07-16T18:12:31.661Z,412
2017-07-16T18:13:33.075Z,396
2017-07-16T18:14:54.615Z,404
2017-07-16T18:15:55.997Z,352
2017-07-16T18:17:18.029Z,276
2017-07-16T18:18:19.394Z,340
2017-07-16T18:19:41.128Z,568
2017-07-16T18:20:42.495Z,808
2017-07-16T18:22:04.015Z,1056
2017-07-16T18:23:05.376Z,1088
2017-07-16T18:24:27.410Z,1264
2017-07-16T18:25:28.777Z,1296
2017-07-16T18:26:50.296Z,1180
2017-07-16T18:27:51.661Z,992
2017-07-16T18:29:13.759Z,812
2017-07-16T18:30:15.409Z,812
2017-07-16T18:31:37.167Z,876
2017-07-16T18:32:38.528Z,848
2017-07-16T18:34:00.069Z,772
2017-07-16T18:35:01.433Z,672
2017-07-16T18:36:22.953Z,628
2017-07-16T18:37:24.319Z,672
2017-07-16T18:38:45.857Z,868
2017-07-16T18:39:47.220Z,964
2017-07-16T18:41:08.741Z,1012
2017-07-16T18:42:10.105Z,972
2017-07-16T18:43:31.645Z,892
2017-07-16T18:44:33.008Z,868
2017-07-16T18:45:54.530Z,860
2017-07-16T18:46:55.895Z,848
2017-07-16T18:48:17.433Z,816
2017-07-16T18:49:18.926Z,796
2017-07-16T18:50:41.425Z,764
2017-07-16T18:51:42.831Z,744
2017-07-16T18:53:04.353Z,708
2017-07-16T18:54:05.714Z,648
2017-07-16T18:55:27.260Z,528
2017-07-16T18:56:28.633Z,500
2017-07-16T18:57:50.285Z,504
2017-07-16T18:58:51.646Z,524
2017-07-16T19:00:13.185Z,564
2017-07-16T19:01:14.615Z,584
2017-07-16T19:02:36.093Z,552
2017-07-16T19:03:37.457Z,492
2017-07-16T19:04:59.996Z,424
2017-07-16T19:06:01.394Z,396
2017-07-16T19:07:22.918Z,332
2017-07-16T19:08:24.277Z,280
2017-07-16T19:09:45.817Z,224
2017-07-16T19:10:47.246Z,184
2017-07-16T19:12:08.801Z,144
2017-07-16T19:13:10.169Z,132
2017-07-16T19:14:31.703Z,116
2017-07-16T19:15:33.068Z,116
2017-07-16T19:16:54.585Z,116
2017-07-16T19:17:55.947Z,116
2017-07-16T19:19:17.486Z,108
2017-07-16T19:20:18.847Z,108
2017-07-16T19:21:40.471Z,120
2017-07-16T19:22:41.833Z,132
2017-07-16T19:24:03.416Z,132
2017-07-16T19:25:04.790Z,132
2017-07-16T19:26:26.383Z,120
2017-07-16T19:27:27.744Z,112
2017-07-16T19:28:49.308Z,92
2017-07-16T19:29:50.671Z,72
2017-07-16T19:31:12.209Z,68
2017-07-16T19:32:13.567Z,76
2017-07-16T19:33:35.106Z,88
2017-07-16T19:34:37.402Z,96
2017-07-16T19:35:58.927Z,104
2017-07-16T19:37:00.288Z,112
2017-07-16T19:38:21.806Z,108
2017-07-16T19:39:23.167Z,96
2017-07-16T19:40:44.702Z,80
2017-07-16T19:41:46.064Z,68
2017-07-16T19:43:07.581Z,64
2017-07-16T19:44:08.942Z,60
2017-07-16T19:45:30.650Z,56
2017-07-16T19:46:32.010Z,44
2017-07-16T19:47:53.526Z,40
2017-07-16T19:48:54.892Z,32
2017-07-16T19:50:16.430Z,20
2017-07-16T19:51:17.797Z,16
2017-07-16T19:52:39.402Z,12
2017-07-16T19:53:40.807Z,8
2017-07-16T19:55:02.510Z,8
2017-07-16T19:56:03.944Z,8
2017-07-16T19:57:25.455Z,4
2017-07-16T19:58:26.819Z,4
2017-07-16T19:59:48.352Z,4
2017-07-16T20:00:49.712Z,4
2017-07-16T20:02:11.228Z,4
2017-07-16T20:03:12.587Z,0
2017-07-16T20:04:34.129Z,4
2017-07-16T20:05:35.490Z,0
2017-07-16T20:06:57.021Z,0
2017-07-16T20:07:58.444Z,0
2017-07-16T20:09:19.994Z,0
2017-07-16T20:10:21.790Z,0
2017-07-16T20:11:43.146Z,0
2017-07-16T20:12:44.507Z,0
2017-07-16T20:14:06.236Z,0
2017-07-16T20:15:07.642Z,0
2017-07-16T20:16:29.199Z,0
2017-07-16T20:17:30.628Z,0
2017-07-16T20:18:52.219Z,0
2017-07-16T20:19:53.645Z,0
2017-07-16T20:21:15.194Z,0
2017-07-16T20:22:16.581Z,0
2017-07-16T20:23:38.114Z,0
2017-07-16T20:24:39.498Z,0
2017-07-16T20:26:01.125Z,0
2017-07-16T20:27:02.465Z,0
2017-07-16T20:28:25.013Z,0
2017-07-16T20:29:26.722Z,0
2017-07-16T20:30:49.312Z,0
2017-07-16T20:31:50.680Z,0
2017-07-16T20:33:12.775Z,0
2017-07-16T20:34:14.136Z,0
2017-07-16T20:35:35.734Z,0
2017-07-16T20:36:37.116Z,0
2017-07-16T20:37:59.183Z,0
2017-07-16T20:39:00.582Z,0
2017-07-16T20:40:22.194Z,0
2017-07-16T20:41:23.648Z,0
2017-07-16T20:42:45.157Z,0
2017-07-16T20:43:46.538Z,0
2017-07-16T20:45:08.105Z,0
2017-07-16T20:46:09.537Z,0
2017-07-16T20:47:31.085Z,0
2017-07-16T20:48:33.057Z,0
2017-07-16T20:49:54.615Z,0
2017-07-16T20:50:56.014Z,0
2017-07-16T20:52:17.542Z,0
2017-07-16T20:53:18.949Z,0
2017-07-16T20:54:40.503Z,0
2017-07-16T20:55:41.919Z,0
2017-07-16T20:57:03.472Z,0
2017-07-16T20:58:04.838Z,0
2017-07-16T20:59:26.403Z,0
2017-07-16T21:00:27.819Z,0
2017-07-16T21:01:49.360Z,0
2017-07-16T21:02:50.754Z,0
2017-07-16T21:04:12.273Z,0
2017-07-16T21:05:13.631Z,0
2017-07-16T21:06:35.151Z,0